Hlavní strana
METAR-TAF:

METAR-TAF

Letiště :

Čita, Rusko

zeměpisná šířka: 52-05N, zeměpisná délka: 113-29E, výška: 685 m

Aktuální stav počasí

Zpráva byla vytvořena před 18 minutami, v 05:00 UTC
Jihojihozápadní vítr 6 kt, proměnlivý mezi východojihovýchodním a západním
Teplota 26°C
Vlhkost vzduchu 28%
Tlak 1007 hPa
Viditelnost 10 km a více

METAR: UIAA 200500Z 20003MPS 120V280 9999 NSC 26/06 Q1007 R29/CLRD70 NOSIG RMK QFE697/0929

Čas: 14:18 (05:18 UTC)

Předpověď počasí

Zpráva byla vytvořena před 3 hodinami a 18 minutami, v 02:00 UTC
Předpověď platná od 20 v 03 UTC do 21 v 03 UTC
Západojihozápadní vítr 6 kt
Viditelnost 10 km a více
Polojasno ve výšce 4000 ft, Cumulonimbus.
Dočasný
od 20 v 05 UTC do 20 v 12 UTC
Jižní vítr 10 kt s nárazy do 19 kt

TAF: UIAA 200200Z 2003/2103 24003MPS 9999 SCT040CB TEMPO 2005/2012 18005G10MPS

Stav a předpovědi počasí z více než 4 000 letišť (zprávy METAR a TAF).

Červené a žluté tečky na mapě představují dostupné meteorologické stanice.

Když kurzor umístíte na tečku, zobrazí se název stanice.

Pak kliknutím zobrazíte stav a předpověď počasí.

Chcete-li změnit mapu, kliknutím na zelené tlačítko se znaménkem +mapu přiblížíte, kliknutím na zelené tlačítko se znaménkem – mapu oddálíte a kliknutím na zelené šipky přejdete na sousední mapy.


METAR-TAF: